Time;durP1;ratioP1;P1;durP2;ratioP2;P2;SDS_P1;SDS_P2;PMS_P1;PMS_P2;Temp;Humidity;BMP_temperature;BMP_pressure;BME280_temperature;BME280_humidity;BME280_pressure;Samples;Min_cycle;Max_cycle;Signal;HPM_P1;HPM_P2
2024/01/30 00:00:57;;;;;;;13.77;6.47;;;4.00;99.90;;;;;;5232292;28;20195;-49
2024/01/30 00:03:29;;;;;;;6.50;5.60;;;4.10;99.90;;;;;;5218633;28;20711;-47
2024/01/30 00:06:00;;;;;;;9.10;4.90;;;4.00;99.90;;;;;;5232824;28;20417;-49
2024/01/30 00:08:30;;;;;;;13.57;6.07;;;3.90;99.90;;;;;;5221982;28;20451;-49
2024/01/30 00:11:01;;;;;;;7.43;5.57;;;4.10;99.90;;;;;;5181007;28;1519452;-49
2024/01/30 00:13:31;;;;;;;10.10;6.27;;;3.90;99.90;;;;;;5246360;28;20739;-48
2024/01/30 00:16:02;;;;;;;8.30;6.17;;;4.00;99.90;;;;;;5220903;28;20233;-48
2024/01/30 00:18:33;;;;;;;8.80;5.70;;;4.10;99.90;;;;;;5214769;28;20753;-49
2024/01/30 00:21:03;;;;;;;10.93;6.53;;;3.90;99.90;;;;;;5237692;28;20206;-49
2024/01/30 00:23:34;;;;;;;11.00;5.67;;;3.90;99.90;;;;;;5229315;28;20186;-47
2024/01/30 00:26:06;;;;;;;14.77;5.73;;;3.90;99.90;;;;;;5242584;28;20448;-51
2024/01/30 00:28:37;;;;;;;13.63;5.80;;;3.80;99.90;;;;;;5231025;28;20187;-49
2024/01/30 00:31:07;;;;;;;15.40;6.27;;;3.80;99.90;;;;;;5205227;28;20534;-48
2024/01/30 00:33:39;;;;;;;12.67;5.90;;;3.70;99.90;;;;;;5235025;28;20465;-49
2024/01/30 00:36:10;;;;;;;7.57;5.63;;;3.60;99.90;;;;;;5238739;28;20273;-50
2024/01/30 00:38:40;;;;;;;7.90;4.90;;;3.60;99.90;;;;;;5230934;28;20501;-47
2024/01/30 00:41:11;;;;;;;6.53;5.43;;;3.50;99.90;;;;;;5219257;28;20487;-48
2024/01/30 00:43:42;;;;;;;12.63;5.70;;;3.50;99.90;;;;;;5236782;28;20557;-48
2024/01/30 00:46:12;;;;;;;5.87;5.13;;;3.50;99.90;;;;;;5235294;28;20179;-48
2024/01/30 00:48:43;;;;;;;6.53;5.53;;;3.60;99.90;;;;;;5218148;28;20250;-49
2024/01/30 00:51:14;;;;;;;8.37;6.60;;;3.50;99.90;;;;;;5230476;28;20729;-50
2024/01/30 00:53:45;;;;;;;9.80;6.10;;;3.50;99.90;;;;;;5223601;28;20461;-48
2024/01/30 00:56:18;;;;;;;15.63;6.00;;;3.60;99.90;;;;;;5201107;28;20464;-50
2024/01/30 00:58:48;;;;;;;8.47;5.90;;;3.50;99.90;;;;;;5229784;28;20270;-49
2024/01/30 01:01:19;;;;;;;10.53;5.90;;;3.40;99.90;;;;;;5230386;28;20460;-48
2024/01/30 01:03:50;;;;;;;6.43;4.40;;;3.50;99.90;;;;;;5216912;28;20933;-48
2024/01/30 01:06:21;;;;;;;7.87;5.13;;;3.40;99.90;;;;;;5222182;28;20220;-48
2024/01/30 01:08:51;;;;;;;6.17;4.70;;;3.40;99.90;;;;;;5235829;28;20203;-48
2024/01/30 01:11:22;;;;;;;7.20;5.30;;;3.60;99.90;;;;;;5214396;28;20214;-49
2024/01/30 01:13:52;;;;;;;8.90;5.93;;;3.50;99.90;;;;;;5223748;28;20689;-48
2024/01/30 01:16:23;;;;;;;13.00;6.03;;;3.40;99.90;;;;;;5223115;28;20182;-48
2024/01/30 01:18:54;;;;;;;7.60;5.87;;;3.40;99.90;;;;;;5210546;28;20198;-48
2024/01/30 01:21:24;;;;;;;6.90;5.90;;;3.40;99.90;;;;;;5234147;28;20205;-47
2024/01/30 01:23:55;;;;;;;12.03;6.13;;;3.30;99.90;;;;;;5228922;28;20187;-49
2024/01/30 01:26:25;;;;;;;9.53;5.93;;;3.30;99.90;;;;;;5222971;28;20187;-48
2024/01/30 01:28:56;;;;;;;13.97;5.63;;;3.50;99.90;;;;;;5222760;28;20182;-48
2024/01/30 01:31:29;;;;;;;9.60;6.07;;;3.30;99.90;;;;;;5239943;28;20210;-48
2024/01/30 01:34:00;;;;;;;9.93;6.30;;;3.40;99.90;;;;;;5222657;28;20565;-47
2024/01/30 01:36:30;;;;;;;8.20;6.17;;;3.30;99.90;;;;;;5216189;28;20420;-48
2024/01/30 01:39:01;;;;;;;5.97;5.47;;;3.30;99.90;;;;;;5230312;28;20178;-48
2024/01/30 01:41:32;;;;;;;10.27;5.93;;;3.30;99.90;;;;;;5216703;28;20591;-50
2024/01/30 01:44:03;;;;;;;10.63;6.23;;;3.20;99.90;;;;;;5235170;28;20206;-48
2024/01/30 01:46:34;;;;;;;11.63;6.87;;;3.10;99.90;;;;;;5222713;28;20440;-51
2024/01/30 01:49:05;;;;;;;8.07;6.07;;;3.10;99.90;;;;;;5232855;28;20187;-47
2024/01/30 01:51:37;;;;;;;9.30;5.70;;;3.10;99.90;;;;;;5217453;28;20473;-48
2024/01/30 01:54:08;;;;;;;10.07;6.30;;;3.10;99.90;;;;;;5239506;28;20562;-47
2024/01/30 01:56:39;;;;;;;11.30;7.07;;;3.10;99.90;;;;;;5215182;28;20532;-48
2024/01/30 01:59:10;;;;;;;14.37;6.47;;;3.10;99.90;;;;;;5228436;28;20429;-47
2024/01/30 02:01:41;;;;;;;12.90;7.00;;;3.10;99.90;;;;;;5227690;28;20532;-48
2024/01/30 02:04:12;;;;;;;8.20;5.40;;;3.20;99.90;;;;;;5230923;28;20262;-49
2024/01/30 02:06:43;;;;;;;11.67;6.63;;;3.20;99.90;;;;;;5198676;28;20179;-48
2024/01/30 02:09:14;;;;;;;7.80;6.00;;;3.20;99.90;;;;;;5219185;28;20179;-49
2024/01/30 02:11:45;;;;;;;9.20;5.30;;;3.10;99.90;;;;;;5219891;28;20457;-48
2024/01/30 02:14:15;;;;;;;12.03;6.00;;;3.00;99.90;;;;;;5239968;28;20287;-51
2024/01/30 02:16:46;;;;;;;9.97;6.90;;;2.90;99.90;;;;;;5239444;28;20179;-47
2024/01/30 02:19:16;;;;;;;12.10;6.10;;;2.90;99.90;;;;;;5218988;28;20178;-50
2024/01/30 02:21:47;;;;;;;9.60;6.13;;;2.90;99.90;;;;;;5217711;28;20560;-47
2024/01/30 02:24:18;;;;;;;9.27;6.00;;;2.90;99.90;;;;;;5230572;28;20259;-48
2024/01/30 02:26:49;;;;;;;12.73;6.53;;;2.90;99.90;;;;;;5225577;28;20240;-48
2024/01/30 02:29:19;;;;;;;10.53;6.10;;;2.90;99.90;;;;;;5238484;28;20183;-49
2024/01/30 02:31:50;;;;;;;13.40;6.27;;;3.10;99.90;;;;;;5234369;28;20242;-47
2024/01/30 02:34:21;;;;;;;7.03;5.33;;;3.00;99.90;;;;;;5235952;28;20206;-48
2024/01/30 02:36:51;;;;;;;11.10;6.50;;;2.90;99.90;;;;;;5221210;28;20205;-48
2024/01/30 02:39:22;;;;;;;18.30;7.07;;;2.90;99.90;;;;;;5237071;28;20464;-47
2024/01/30 02:41:52;;;;;;;12.43;6.27;;;3.00;99.90;;;;;;5235719;28;20566;-47
2024/01/30 02:44:23;;;;;;;7.70;6.20;;;2.90;99.90;;;;;;5236541;28;20267;-47
2024/01/30 02:46:54;;;;;;;9.10;6.20;;;3.00;99.90;;;;;;5221376;28;20187;-47
2024/01/30 02:49:25;;;;;;;12.83;6.23;;;3.10;99.90;;;;;;5243715;28;20186;-47
2024/01/30 02:51:56;;;;;;;10.87;6.63;;;3.10;99.90;;;;;;5237106;28;20448;-49
2024/01/30 02:54:27;;;;;;;14.30;6.23;;;3.00;99.90;;;;;;5231874;28;20261;-47
2024/01/30 02:56:58;;;;;;;12.23;5.93;;;3.10;99.90;;;;;;5236514;28;20433;-48
2024/01/30 02:59:28;;;;;;;10.90;6.47;;;3.00;99.90;;;;;;5216163;28;20601;-47
2024/01/30 03:01:59;;;;;;;14.13;6.37;;;2.90;99.90;;;;;;5221012;28;20488;-47
2024/01/30 03:04:30;;;;;;;8.97;6.17;;;2.90;99.90;;;;;;5216814;28;20186;-47
2024/01/30 03:07:00;;;;;;;10.97;6.67;;;2.90;99.90;;;;;;5241439;28;20262;-48
2024/01/30 03:09:31;;;;;;;8.87;5.80;;;2.80;99.90;;;;;;5231374;28;20268;-47
2024/01/30 03:12:02;;;;;;;7.53;5.90;;;2.90;99.90;;;;;;5220964;28;20667;-48
2024/01/30 03:14:32;;;;;;;8.53;6.03;;;3.00;99.90;;;;;;5225619;28;20219;-49
2024/01/30 03:17:03;;;;;;;8.40;5.60;;;2.90;99.90;;;;;;5234671;28;20558;-48
2024/01/30 03:19:33;;;;;;;15.77;6.77;;;2.80;99.90;;;;;;5211169;28;20658;-48
2024/01/30 03:22:04;;;;;;;6.83;6.13;;;2.70;99.90;;;;;;5237441;28;20249;-50
2024/01/30 03:24:35;;;;;;;9.00;6.07;;;2.70;99.90;;;;;;5219779;28;20291;-47
2024/01/30 03:27:05;;;;;;;29.73;6.57;;;2.70;99.90;;;;;;5217133;28;20650;-48
2024/01/30 03:29:36;;;;;;;6.90;6.10;;;2.60;99.90;;;;;;5220887;28;20190;-48
2024/01/30 03:32:06;;;;;;;9.73;5.77;;;2.60;99.90;;;;;;5220356;28;20203;-49
2024/01/30 03:34:37;;;;;;;10.93;6.60;;;2.60;99.90;;;;;;5220660;28;20186;-46
2024/01/30 03:37:08;;;;;;;10.23;5.97;;;2.60;99.90;;;;;;5220934;28;20242;-47
2024/01/30 03:39:38;;;;;;;9.33;6.20;;;2.60;99.90;;;;;;5219956;28;20194;-49
2024/01/30 03:42:09;;;;;;;13.00;6.40;;;2.60;99.90;;;;;;5217979;28;20206;-47
2024/01/30 03:44:39;;;;;;;10.33;6.57;;;2.70;99.90;;;;;;5224564;28;20179;-48
2024/01/30 03:47:10;;;;;;;16.60;6.60;;;2.80;99.90;;;;;;5222994;28;20187;-48
2024/01/30 03:49:41;;;;;;;9.93;6.47;;;2.70;99.90;;;;;;5218801;28;20262;-48
2024/01/30 03:52:11;;;;;;;9.57;6.17;;;2.60;99.90;;;;;;5247743;28;20251;-51
2024/01/30 03:54:42;;;;;;;9.17;6.00;;;2.60;99.90;;;;;;5217453;28;20685;-48
2024/01/30 03:57:12;;;;;;;10.73;6.77;;;2.60;99.90;;;;;;5226235;28;20175;-48
2024/01/30 03:59:43;;;;;;;12.37;6.60;;;2.60;99.90;;;;;;5238716;28;20202;-48
2024/01/30 04:02:13;;;;;;;10.60;6.07;;;2.60;99.90;;;;;;5239051;28;20190;-48
2024/01/30 04:04:44;;;;;;;14.03;7.87;;;2.50;99.90;;;;;;5239586;28;20186;-48
2024/01/30 04:07:15;;;;;;;6.80;5.07;;;2.50;99.90;;;;;;5229933;28;20195;-49
2024/01/30 04:09:45;;;;;;;13.30;6.67;;;2.50;99.90;;;;;;5228377;28;20206;-48
2024/01/30 04:12:16;;;;;;;12.40;6.63;;;2.50;99.90;;;;;;5238065;28;20210;-47
2024/01/30 04:14:47;;;;;;;9.87;5.57;;;2.60;99.90;;;;;;5217907;28;20525;-50
2024/01/30 04:17:17;;;;;;;9.40;6.30;;;2.50;99.90;;;;;;5244816;28;20288;-48
2024/01/30 04:19:48;;;;;;;13.60;6.80;;;2.60;99.90;;;;;;5220546;28;20186;-48
2024/01/30 04:22:19;;;;;;;8.53;5.90;;;2.70;99.90;;;;;;5237741;28;20676;-48
2024/01/30 04:24:49;;;;;;;9.47;6.13;;;2.70;99.90;;;;;;5236458;28;20171;-47
2024/01/30 04:27:20;;;;;;;11.80;6.60;;;2.80;99.90;;;;;;5229852;28;20203;-48
2024/01/30 04:29:50;;;;;;;10.93;6.33;;;2.70;99.90;;;;;;5226720;28;20171;-48
2024/01/30 04:32:21;;;;;;;14.13;6.37;;;2.80;99.90;;;;;;5224817;28;20601;-48
2024/01/30 04:34:51;;;;;;;9.37;6.63;;;2.80;99.90;;;;;;5223831;28;20190;-48
2024/01/30 04:37:23;;;;;;;7.97;7.17;;;2.80;99.90;;;;;;5220920;28;20179;-49
2024/01/30 04:39:54;;;;;;;12.93;6.80;;;2.80;99.90;;;;;;5236003;28;20191;-48
2024/01/30 04:42:24;;;;;;;11.20;9.17;;;2.80;99.90;;;;;;5236809;28;20487;-47
2024/01/30 04:44:55;;;;;;;8.23;6.20;;;3.00;99.90;;;;;;5222317;28;20620;-49
2024/01/30 04:47:26;;;;;;;12.60;6.40;;;2.80;99.90;;;;;;5234436;28;20596;-47
2024/01/30 04:49:56;;;;;;;12.13;6.80;;;2.70;99.90;;;;;;5213791;28;20183;-47
2024/01/30 04:52:27;;;;;;;14.07;7.47;;;2.60;99.90;;;;;;5223696;28;20209;-49
2024/01/30 04:54:58;;;;;;;10.23;6.60;;;2.70;99.90;;;;;;5215916;28;20193;-48
2024/01/30 04:57:29;;;;;;;9.33;6.30;;;2.70;99.90;;;;;;5234106;28;20635;-48
2024/01/30 04:59:59;;;;;;;12.90;7.90;;;2.60;99.90;;;;;;5215871;28;20167;-50
2024/01/30 05:02:30;;;;;;;19.77;10.40;;;2.80;99.90;;;;;;5215515;28;20191;-48
2024/01/30 05:05:01;;;;;;;12.93;7.10;;;2.70;99.90;;;;;;5235141;28;20469;-48
2024/01/30 05:07:31;;;;;;;10.27;6.87;;;2.70;99.90;;;;;;5216741;28;20193;-49
2024/01/30 05:10:03;;;;;;;14.50;8.20;;;2.70;99.90;;;;;;5234607;28;20181;-47
2024/01/30 05:12:33;;;;;;;12.10;7.60;;;2.70;99.90;;;;;;5234165;28;20617;-48
2024/01/30 05:15:04;;;;;;;12.20;7.40;;;2.70;99.90;;;;;;5227162;28;20445;-50
2024/01/30 05:17:35;;;;;;;13.13;7.10;;;2.70;99.90;;;;;;5232973;28;20650;-49
2024/01/30 05:20:07;;;;;;;9.40;6.20;;;2.60;99.90;;;;;;5216091;28;20175;-48
2024/01/30 05:22:38;;;;;;;21.77;8.97;;;2.60;99.90;;;;;;5215748;28;20214;-50
2024/01/30 05:25:08;;;;;;;19.67;9.20;;;2.80;99.90;;;;;;5214353;28;20457;-50
2024/01/30 05:27:39;;;;;;;19.60;6.67;;;3.00;99.90;;;;;;5228194;28;20218;-48
2024/01/30 05:30:10;;;;;;;11.10;7.53;;;3.00;99.90;;;;;;5219653;28;20183;-49
2024/01/30 05:32:41;;;;;;;7.97;5.80;;;2.80;99.90;;;;;;5228382;28;20207;-48
2024/01/30 05:35:11;;;;;;;13.23;6.20;;;2.90;99.90;;;;;;5216419;28;20437;-49
2024/01/30 05:37:42;;;;;;;8.33;5.50;;;3.00;99.90;;;;;;5229545;28;20189;-48
2024/01/30 05:40:13;;;;;;;14.53;5.60;;;2.80;99.90;;;;;;5215328;28;20183;-48
2024/01/30 05:42:43;;;;;;;9.23;6.40;;;2.70;99.90;;;;;;5228525;28;20236;-49
2024/01/30 05:45:14;;;;;;;9.93;6.60;;;2.70;99.90;;;;;;5231990;28;20640;-50
2024/01/30 05:47:45;;;;;;;18.93;6.43;;;2.60;99.90;;;;;;5238630;28;20643;-49
2024/01/30 05:50:15;;;;;;;24.00;6.70;;;2.70;99.90;;;;;;5213694;28;20183;-50
2024/01/30 05:52:46;;;;;;;11.40;6.50;;;2.60;99.90;;;;;;5242612;28;20211;-48
2024/01/30 05:55:16;;;;;;;7.30;5.80;;;2.60;99.90;;;;;;5234398;28;20221;-49
2024/01/30 05:57:47;;;;;;;14.37;7.70;;;2.60;99.90;;;;;;5217264;28;20178;-49
2024/01/30 06:00:18;;;;;;;13.43;6.80;;;2.80;99.90;;;;;;5216886;28;20186;-48
2024/01/30 06:02:49;;;;;;;8.70;6.60;;;2.90;99.90;;;;;;5235176;28;20184;-50
2024/01/30 06:05:19;;;;;;;12.40;6.50;;;2.80;99.90;;;;;;5237317;28;20592;-47
2024/01/30 06:07:50;;;;;;;12.13;7.40;;;2.80;99.90;;;;;;5215294;28;20216;-49
2024/01/30 06:10:20;;;;;;;12.83;7.00;;;2.90;99.90;;;;;;5218856;28;20203;-49
2024/01/30 06:12:51;;;;;;;10.27;6.17;;;3.00;99.90;;;;;;5232906;28;20313;-49
2024/01/30 06:15:22;;;;;;;13.07;6.37;;;2.90;99.90;;;;;;5230630;28;20709;-49
2024/01/30 06:17:52;;;;;;;16.30;8.43;;;2.80;99.90;;;;;;5216225;28;20178;-50
2024/01/30 06:20:23;;;;;;;14.00;8.27;;;3.00;99.90;;;;;;5235775;28;20283;-48
2024/01/30 06:22:53;;;;;;;15.23;8.80;;;3.00;99.90;;;;;;5211928;28;20178;-49
2024/01/30 06:25:24;;;;;;;13.30;7.87;;;2.90;99.90;;;;;;5233536;28;20231;-48
2024/01/30 06:27:55;;;;;;;16.37;9.23;;;3.10;99.90;;;;;;5233323;28;20229;-49
2024/01/30 06:30:25;;;;;;;13.83;7.93;;;3.30;99.90;;;;;;5234982;28;20209;-48
2024/01/30 06:32:56;;;;;;;14.60;8.13;;;3.20;99.90;;;;;;5219747;28;20202;-48
2024/01/30 06:35:28;;;;;;;10.73;7.47;;;3.40;99.90;;;;;;5229461;28;20180;-49
2024/01/30 06:37:59;;;;;;;13.13;7.87;;;3.30;99.90;;;;;;5214479;28;20204;-48
2024/01/30 06:40:30;;;;;;;16.40;8.50;;;3.40;99.90;;;;;;5229626;28;20449;-47
2024/01/30 06:43:00;;;;;;;16.40;9.40;;;3.40;99.90;;;;;;5223728;28;20178;-49
2024/01/30 06:45:31;;;;;;;19.90;9.30;;;3.50;99.90;;;;;;5232314;28;20186;-48
2024/01/30 06:48:01;;;;;;;14.43;8.30;;;3.50;99.90;;;;;;5232622;28;20597;-48
2024/01/30 06:50:32;;;;;;;14.50;10.07;;;3.50;99.90;;;;;;5242332;28;20198;-48
2024/01/30 06:53:03;;;;;;;12.10;7.37;;;3.40;99.90;;;;;;5218163;28;20215;-49
2024/01/30 06:55:33;;;;;;;10.33;6.17;;;3.20;99.90;;;;;;5224608;28;20269;-49
2024/01/30 06:58:04;;;;;;;13.80;7.33;;;3.10;99.90;;;;;;5219936;28;20186;-49
2024/01/30 07:00:34;;;;;;;13.40;8.23;;;3.10;99.90;;;;;;5216091;28;20246;-48
2024/01/30 07:03:06;;;;;;;12.70;7.33;;;3.10;99.90;;;;;;5217675;28;20179;-48
2024/01/30 07:05:36;;;;;;;18.90;9.53;;;3.10;99.90;;;;;;5233785;28;20186;-48
2024/01/30 07:08:07;;;;;;;19.57;9.47;;;3.00;99.90;;;;;;5232452;28;20433;-49
2024/01/30 07:10:38;;;;;;;17.80;10.47;;;3.00;99.90;;;;;;5232021;28;20464;-48
2024/01/30 07:13:09;;;;;;;15.97;10.80;;;3.20;99.90;;;;;;5235899;28;20593;-47
2024/01/30 07:15:40;;;;;;;19.37;8.90;;;3.20;99.90;;;;;;5207628;28;20184;-50
2024/01/30 07:18:11;;;;;;;23.83;8.73;;;3.20;99.90;;;;;;5221694;28;20442;-48
2024/01/30 07:20:45;;;;;;;11.60;8.30;;;3.40;99.90;;;;;;5214337;28;20203;-48
2024/01/30 07:23:17;;;;;;;13.33;8.13;;;3.30;99.90;;;;;;5211806;28;20216;-50
2024/01/30 07:25:50;;;;;;;18.37;8.30;;;3.30;99.90;;;;;;5217685;28;20457;-49
2024/01/30 07:28:21;;;;;;;12.73;8.00;;;3.30;99.90;;;;;;5216234;28;20445;-47
2024/01/30 07:30:52;;;;;;;14.17;9.40;;;3.30;99.90;;;;;;5221513;28;20969;-49
2024/01/30 07:33:22;;;;;;;11.50;7.87;;;3.40;99.90;;;;;;5221888;28;20203;-51
2024/01/30 07:35:53;;;;;;;16.83;8.33;;;3.30;99.90;;;;;;5234636;28;20221;-48
2024/01/30 07:38:24;;;;;;;13.77;7.80;;;3.30;99.90;;;;;;5229903;28;20544;-48
2024/01/30 07:40:54;;;;;;;19.53;8.70;;;3.40;99.90;;;;;;5220781;28;20198;-47
2024/01/30 07:43:25;;;;;;;14.93;7.37;;;3.40;99.90;;;;;;5243881;28;20185;-51
2024/01/30 07:45:56;;;;;;;12.13;7.47;;;3.50;99.90;;;;;;5231490;28;20233;-49
2024/01/30 07:48:27;;;;;;;14.70;8.40;;;3.50;99.90;;;;;;5240697;28;20178;-48
2024/01/30 07:50:58;;;;;;;15.13;7.90;;;3.70;99.90;;;;;;5216683;28;20292;-47
2024/01/30 07:53:28;;;;;;;17.17;7.97;;;3.80;99.90;;;;;;5233641;28;21020;-47
2024/01/30 07:55:59;;;;;;;17.37;8.27;;;3.90;99.90;;;;;;5215108;28;20261;-48
2024/01/30 07:58:29;;;;;;;16.03;7.43;;;4.20;99.90;;;;;;5217145;28;20264;-51
2024/01/30 08:01:00;;;;;;;32.23;8.77;;;4.20;99.90;;;;;;5239160;28;20699;-47
2024/01/30 08:03:31;;;;;;;14.17;7.57;;;4.20;99.90;;;;;;5223909;28;20189;-47
2024/01/30 08:06:02;;;;;;;12.37;8.40;;;4.30;99.90;;;;;;5232038;28;20465;-47
2024/01/30 08:08:32;;;;;;;15.43;8.13;;;4.20;99.90;;;;;;5211052;28;20240;-48
2024/01/30 08:11:03;;;;;;;21.87;10.10;;;4.20;99.90;;;;;;5214447;28;20297;-48
2024/01/30 08:13:34;;;;;;;18.97;9.23;;;4.20;99.90;;;;;;5231956;28;20232;-48
2024/01/30 08:16:05;;;;;;;23.10;11.03;;;4.20;99.90;;;;;;5220159;28;20475;-48
2024/01/30 08:18:35;;;;;;;21.63;9.73;;;4.30;99.90;;;;;;5206299;28;20187;-49
2024/01/30 08:21:06;;;;;;;19.03;10.90;;;4.50;99.90;;;;;;5214450;28;20465;-48
2024/01/30 08:23:39;;;;;;;19.60;9.90;;;4.60;99.90;;;;;;5231892;28;20192;-48
2024/01/30 08:26:10;;;;;;;25.50;10.30;;;4.80;99.90;;;;;;5218379;28;20192;-48
2024/01/30 08:28:40;;;;;;;16.37;8.87;;;4.90;99.90;;;;;;5231849;28;20432;-49
2024/01/30 08:31:14;;;;;;;20.00;7.37;;;4.80;99.90;;;;;;5232575;28;20212;-48
2024/01/30 08:33:44;;;;;;;11.90;8.13;;;4.80;99.90;;;;;;5229429;28;20683;-49
2024/01/30 08:36:16;;;;;;;13.00;8.47;;;5.00;99.90;;;;;;5210375;28;20592;-49
2024/01/30 08:38:47;;;;;;;14.90;8.23;;;4.90;99.90;;;;;;5229242;28;20187;-49
2024/01/30 08:41:17;;;;;;;14.63;8.43;;;5.00;99.90;;;;;;5227722;28;20814;-50
2024/01/30 08:43:49;;;;;;;14.90;8.17;;;5.00;99.90;;;;;;5230991;28;20300;-50
2024/01/30 08:46:19;;;;;;;21.07;9.40;;;5.20;99.90;;;;;;5220583;28;20535;-50
2024/01/30 08:48:50;;;;;;;13.70;9.80;;;5.20;99.90;;;;;;5213250;28;20197;-49
2024/01/30 08:51:21;;;;;;;11.60;8.47;;;5.30;99.90;;;;;;5218309;28;20211;-49
2024/01/30 08:53:52;;;;;;;17.53;9.77;;;5.40;99.90;;;;;;5223348;28;20204;-48
2024/01/30 08:56:23;;;;;;;16.47;8.93;;;5.50;99.90;;;;;;5218661;28;20232;-48
2024/01/30 08:58:54;;;;;;;10.80;7.40;;;5.70;99.90;;;;;;5239224;28;20444;-48
2024/01/30 09:01:25;;;;;;;17.33;9.30;;;5.80;99.90;;;;;;5212304;28;20205;-48
2024/01/30 09:03:56;;;;;;;18.27;10.00;;;5.80;99.90;;;;;;5213532;28;20713;-49
2024/01/30 09:06:28;;;;;;;15.20;8.90;;;5.90;99.90;;;;;;5231354;28;20523;-49
2024/01/30 09:08:58;;;;;;;13.87;7.87;;;6.20;99.90;;;;;;5217723;28;20181;-49
2024/01/30 09:11:29;;;;;;;13.83;8.40;;;6.30;99.90;;;;;;5234200;28;21016;-49
2024/01/30 09:14:00;;;;;;;11.47;6.80;;;6.40;99.90;;;;;;5210725;28;20191;-48
2024/01/30 09:16:30;;;;;;;7.90;6.50;;;6.40;99.90;;;;;;5234885;28;20584;-48
2024/01/30 09:19:02;;;;;;;12.03;7.50;;;6.50;99.90;;;;;;5229214;28;20179;-49
2024/01/30 09:21:32;;;;;;;15.70;8.40;;;6.60;99.90;;;;;;5217872;28;20213;-49
2024/01/30 09:24:06;;;;;;;14.00;8.10;;;6.70;99.90;;;;;;5228698;28;20434;-50
2024/01/30 09:26:37;;;;;;;11.77;7.43;;;6.60;99.90;;;;;;5220093;28;20229;-49
2024/01/30 09:29:07;;;;;;;15.23;8.80;;;6.60;99.90;;;;;;5209700;28;20465;-50
2024/01/30 09:31:38;;;;;;;15.40;7.60;;;6.60;99.90;;;;;;5214019;28;20244;-50
2024/01/30 09:34:08;;;;;;;30.83;10.30;;;6.60;99.90;;;;;;5211814;28;20543;-50
2024/01/30 09:36:39;;;;;;;17.70;9.13;;;6.70;99.90;;;;;;5230013;28;20579;-48
2024/01/30 09:39:10;;;;;;;11.30;7.17;;;6.60;99.90;;;;;;5226655;28;20187;-49
2024/01/30 09:41:49;;;;;;;21.87;9.80;;;6.60;99.90;;;;;;5229296;28;20240;-48
2024/01/30 09:44:21;;;;;;;17.37;9.27;;;6.70;99.90;;;;;;5236990;28;20186;-49
2024/01/30 09:46:52;;;;;;;22.70;15.20;;;6.70;99.90;;;;;;5208721;28;20437;-48
2024/01/30 09:49:24;;;;;;;56.70;23.07;;;6.70;99.90;;;;;;5229768;28;20432;-49
2024/01/30 09:51:55;;;;;;;27.20;14.47;;;6.90;99.90;;;;;;5233651;28;20195;-50
2024/01/30 09:54:26;;;;;;;20.60;12.53;;;7.00;99.90;;;;;;5224994;28;20547;-50
2024/01/30 09:56:57;;;;;;;40.67;22.70;;;6.90;99.90;;;;;;5224513;28;20991;-51
2024/01/30 09:59:28;;;;;;;22.93;13.60;;;7.00;99.90;;;;;;5232431;28;20223;-49
2024/01/30 10:01:59;;;;;;;20.40;13.63;;;7.00;99.90;;;;;;5219905;28;20950;-49
2024/01/30 10:04:30;;;;;;;17.47;12.30;;;6.90;99.90;;;;;;5220301;28;20194;-48
2024/01/30 10:07:02;;;;;;;23.90;12.83;;;7.00;99.90;;;;;;5238892;28;20193;-48
2024/01/30 10:09:34;;;;;;;16.40;9.60;;;7.10;99.90;;;;;;5219703;28;20445;-48
2024/01/30 10:12:06;;;;;;;18.77;9.80;;;7.00;99.90;;;;;;5223435;28;20475;-50
2024/01/30 10:14:40;;;;;;;18.00;10.30;;;7.10;99.90;;;;;;5198025;28;21672;-49
2024/01/30 10:17:12;;;;;;;16.63;9.60;;;7.20;99.90;;;;;;5232390;28;20486;-52
2024/01/30 10:19:43;;;;;;;16.53;8.37;;;7.30;99.90;;;;;;5217553;28;20437;-49
2024/01/30 10:22:14;;;;;;;18.90;10.83;;;7.40;99.90;;;;;;5238038;28;20456;-50
2024/01/30 10:24:45;;;;;;;20.27;12.00;;;7.50;99.50;;;;;;5222975;28;20175;-50
2024/01/30 10:27:16;;;;;;;16.03;7.57;;;7.50;99.30;;;;;;5204788;28;20428;-50
2024/01/30 10:29:48;;;;;;;12.70;7.20;;;7.50;98.60;;;;;;5214509;28;20183;-49
2024/01/30 10:32:20;;;;;;;17.20;8.10;;;7.50;98.70;;;;;;5236929;28;20203;-50
2024/01/30 10:34:51;;;;;;;13.33;7.80;;;7.50;98.50;;;;;;5220235;28;20433;-48
2024/01/30 10:37:25;;;;;;;15.50;7.63;;;7.40;98.60;;;;;;5214951;28;20439;-49
2024/01/30 10:39:58;;;;;;;14.23;8.27;;;7.60;98.10;;;;;;5230316;28;20174;-49
2024/01/30 10:42:32;;;;;;;11.13;6.83;;;7.60;97.70;;;;;;5221546;28;20472;-49
2024/01/30 10:45:12;;;;;;;13.03;7.73;;;7.70;97.10;;;;;;5221938;28;20508;-51
2024/01/30 10:47:50;;;;;;;13.10;7.20;;;7.50;96.80;;;;;;5243288;28;20633;-50
2024/01/30 10:50:23;;;;;;;25.20;8.97;;;7.50;96.90;;;;;;5237296;28;20439;-49
2024/01/30 10:52:55;;;;;;;21.50;9.50;;;7.60;97.00;;;;;;5234699;28;20560;-50
2024/01/30 10:55:28;;;;;;;13.87;7.23;;;7.80;96.00;;;;;;5219446;28;20948;-49
2024/01/30 10:58:00;;;;;;;13.93;6.10;;;7.80;95.80;;;;;;5236905;28;20909;-49
2024/01/30 11:00:33;;;;;;;13.60;8.30;;;7.80;95.60;;;;;;5219083;28;20468;-49
2024/01/30 11:03:04;;;;;;;13.97;7.87;;;7.80;95.20;;;;;;5235594;28;20928;-49
2024/01/30 11:05:35;;;;;;;14.93;7.33;;;7.80;94.90;;;;;;5225751;28;20441;-49
2024/01/30 11:08:13;;;;;;;9.83;7.00;;;7.80;94.70;;;;;;5240858;28;20424;-48
2024/01/30 11:10:50;;;;;;;11.63;7.27;;;7.70;94.80;;;;;;5247489;22;20226;-51
2024/01/30 11:13:23;;;;;;;25.53;7.20;;;7.80;94.80;;;;;;5148525;28;21169;-52
2024/01/30 11:15:54;;;;;;;6.97;5.03;;;7.80;94.80;;;;;;5154444;28;20440;-51
2024/01/30 11:18:26;;;;;;;8.60;4.93;;;7.90;94.00;;;;;;5157390;28;20456;-53
2024/01/30 11:20:58;;;;;;;6.60;5.23;;;7.90;94.30;;;;;;5155552;28;20464;-52
2024/01/30 11:23:29;;;;;;;9.43;5.30;;;7.70;94.50;;;;;;5148730;28;20433;-51
2024/01/30 11:26:01;;;;;;;7.67;5.20;;;7.80;95.10;;;;;;5152840;28;20421;-51
2024/01/30 11:28:35;;;;;;;10.17;6.77;;;7.80;96.40;;;;;;5155533;28;20272;-51
2024/01/30 11:31:07;;;;;;;10.00;6.00;;;8.00;94.60;;;;;;5155420;28;20892;-54
2024/01/30 11:33:38;;;;;;;8.20;6.20;;;7.90;94.80;;;;;;5157766;28;20498;-50
2024/01/30 11:36:13;;;;;;;8.57;5.90;;;7.90;95.40;;;;;;5155977;28;20456;-51
2024/01/30 11:38:45;;;;;;;6.50;5.90;;;8.00;95.10;;;;;;5153589;28;20907;-50
2024/01/30 11:41:16;;;;;;;8.70;5.80;;;8.10;94.70;;;;;;5154235;28;20461;-51
2024/01/30 11:43:53;;;;;;;9.97;6.00;;;8.20;94.00;;;;;;5162432;28;20512;-52
2024/01/30 11:46:25;;;;;;;11.23;6.30;;;8.10;94.10;;;;;;5154769;28;20478;-51
2024/01/30 11:48:57;;;;;;;7.50;6.00;;;8.10;94.60;;;;;;5144480;28;20467;-50
2024/01/30 11:51:37;;;;;;;9.70;5.80;;;8.10;94.30;;;;;;5153153;28;21044;-50
2024/01/30 11:54:08;;;;;;;8.47;5.70;;;8.10;94.00;;;;;;5158759;28;20464;-51
2024/01/30 11:56:39;;;;;;;7.47;5.40;;;8.10;94.10;;;;;;5151683;28;20421;-53
2024/01/30 11:59:10;;;;;;;12.20;6.40;;;8.20;94.40;;;;;;5154870;28;20425;-52
2024/01/30 12:01:42;;;;;;;16.40;6.93;;;8.40;94.40;;;;;;5149130;28;20229;-52
2024/01/30 12:04:14;;;;;;;9.57;6.17;;;8.60;93.60;;;;;;5151240;28;20235;-51
2024/01/30 12:06:51;;;;;;;10.90;6.60;;;8.60;93.60;;;;;;5154671;28;20965;-51
2024/01/30 12:09:22;;;;;;;9.77;5.93;;;8.70;93.30;;;;;;5149725;28;20978;-51
2024/01/30 12:11:53;;;;;;;11.00;5.93;;;8.80;93.30;;;;;;5151635;28;20463;-52
2024/01/30 12:14:26;;;;;;;28.03;12.63;;;9.00;93.40;;;;;;5148495;28;20488;-51
2024/01/30 12:16:58;;;;;;;12.27;6.97;;;9.10;92.40;;;;;;5155417;28;20499;-53
2024/01/30 12:19:28;;;;;;;19.83;6.97;;;9.20;91.80;;;;;;5147348;28;20462;-51
2024/01/30 12:22:00;;;;;;;10.33;5.57;;;9.20;91.40;;;;;;5156202;28;20508;-50
2024/01/30 12:24:34;;;;;;;13.20;5.83;;;9.20;91.40;;;;;;5149838;28;20229;-51
2024/01/30 12:27:05;;;;;;;7.90;6.20;;;9.20;91.70;;;;;;5150778;28;20436;-51
2024/01/30 12:29:36;;;;;;;11.53;6.40;;;9.30;91.10;;;;;;5157755;28;20436;-52
2024/01/30 12:32:07;;;;;;;13.60;5.73;;;9.20;91.20;;;;;;5155111;28;20212;-51
2024/01/30 12:34:41;;;;;;;11.80;6.57;;;9.10;91.10;;;;;;5151426;28;20472;-51
2024/01/30 12:37:13;;;;;;;12.93;6.83;;;9.20;91.50;;;;;;5154014;28;20269;-51
2024/01/30 12:39:44;;;;;;;7.77;5.97;;;9.10;91.50;;;;;;5156998;28;20458;-52
2024/01/30 12:42:15;;;;;;;11.33;7.20;;;9.10;91.40;;;;;;5148600;28;20445;-51
2024/01/30 12:44:47;;;;;;;10.27;6.67;;;9.00;91.70;;;;;;5149786;28;20816;-52
2024/01/30 12:47:18;;;;;;;10.33;6.67;;;9.10;91.60;;;;;;5152250;28;20771;-52
2024/01/30 12:49:49;;;;;;;10.87;6.10;;;8.90;91.80;;;;;;5145708;28;20491;-52
2024/01/30 12:52:24;;;;;;;9.03;6.73;;;8.90;92.10;;;;;;5154528;28;20209;-51
2024/01/30 12:54:55;;;;;;;17.03;8.40;;;8.90;92.20;;;;;;5148468;28;20471;-51
2024/01/30 12:57:26;;;;;;;7.00;6.30;;;8.90;92.50;;;;;;5160634;28;20436;-51
2024/01/30 12:59:57;;;;;;;17.07;9.43;;;8.90;92.60;;;;;;5136577;28;20429;-51
2024/01/30 13:02:34;;;;;;;14.00;9.60;;;8.80;92.90;;;;;;5155547;28;20240;-52
2024/01/30 13:05:05;;;;;;;16.60;8.37;;;8.90;92.90;;;;;;5149088;28;20174;-51
2024/01/30 13:07:36;;;;;;;11.37;7.10;;;8.80;92.90;;;;;;5151754;28;20485;-53